createdAt,value
2018-09-26T00:00:46.697Z,52.14
2018-09-26T00:01:46.706Z,52.14
2018-09-26T00:02:46.674Z,52.14
2018-09-26T00:03:46.664Z,52.14
2018-09-26T00:04:46.665Z,51.74
2018-09-26T00:05:46.640Z,52.14
2018-09-26T00:06:46.651Z,52.04
2018-09-26T00:07:46.628Z,51.94
2018-09-26T00:08:46.609Z,52.04
2018-09-26T00:09:46.596Z,52.04
2018-09-26T00:10:46.593Z,52.07
2018-09-26T00:11:46.595Z,52.04
2018-09-26T00:12:46.562Z,52.07
2018-09-26T00:13:46.550Z,51.84
2018-09-26T00:14:46.538Z,52.04
2018-09-26T00:15:46.528Z,52.07
2018-09-26T00:16:46.553Z,52.04
2018-09-26T00:17:46.505Z,51.87
2018-09-26T00:18:46.497Z,51.97
2018-09-26T00:19:46.483Z,51.84
2018-09-26T00:20:46.472Z,51.74
2018-09-26T00:21:46.484Z,51.84
2018-09-26T00:22:46.460Z,51.74
2018-09-26T00:23:46.441Z,51.87
2018-09-26T00:24:46.426Z,51.87
2018-09-26T00:25:46.415Z,51.56
2018-09-26T00:26:46.426Z,51.87
2018-09-26T00:27:46.393Z,51.94
2018-09-26T00:28:46.403Z,51.64
2018-09-26T00:29:46.371Z,51.87
2018-09-26T00:30:46.359Z,51.74
2018-09-26T00:31:46.370Z,51.54
2018-09-26T00:32:46.338Z,51.74
2018-09-26T00:33:46.326Z,51.56
2018-09-26T00:34:46.323Z,51.64
2018-09-26T00:35:46.332Z,51.64
2018-09-26T00:36:46.313Z,51.64
2018-09-26T00:37:46.282Z,52.26
2018-09-26T00:38:46.271Z,51.76
2018-09-26T00:39:46.260Z,51.44
2018-09-26T00:40:46.270Z,51.44
2018-09-26T00:41:46.261Z,51.44
2018-09-26T00:42:46.227Z,51.67
2018-09-26T00:43:46.213Z,51.54
2018-09-26T00:44:46.202Z,51.64
2018-09-26T00:45:46.190Z,51.54
2018-09-26T00:46:46.217Z,51.64
2018-09-26T00:47:46.172Z,51.64
2018-09-26T00:48:46.158Z,51.64
2018-09-26T00:49:46.148Z,51.76
2018-09-26T00:50:46.135Z,51.67
2018-09-26T00:51:46.145Z,51.64
2018-09-26T00:52:46.127Z,51.74
2018-09-26T00:53:46.106Z,51.64
2018-09-26T00:54:46.091Z,51.56
2018-09-26T00:55:46.081Z,51.64
2018-09-26T00:56:46.089Z,51.64
2018-09-26T00:57:46.070Z,52.14
2018-09-26T00:58:46.057Z,52.14
2018-09-26T00:59:46.035Z,52.04
2018-09-26T01:00:46.027Z,52.04
2018-09-26T01:01:46.034Z,51.64
2018-09-26T01:02:46.021Z,51.67
2018-09-26T01:03:45.992Z,52.04
2018-09-26T01:04:45.994Z,51.94
2018-09-26T01:05:45.968Z,52.14
2018-09-26T01:06:45.958Z,51.94
2018-09-26T01:07:45.967Z,52.04
2018-09-26T01:08:45.931Z,51.94
2018-09-26T01:09:45.936Z,51.54
2018-09-26T01:10:45.918Z,51.44
2018-09-26T01:11:45.900Z,51.97
2018-09-26T01:12:45.912Z,51.67
2018-09-26T01:13:45.880Z,52.17
2018-09-26T01:14:45.864Z,52.04
2018-09-26T01:15:45.873Z,51.94
2018-09-26T01:16:45.841Z,51.94
2018-09-26T01:17:45.852Z,51.94
2018-09-26T01:18:45.819Z,51.94
2018-09-26T01:19:45.808Z,51.64
2018-09-26T01:20:45.797Z,51.94
2018-09-26T01:21:45.797Z,51.84
2018-09-26T01:22:45.798Z,51.64
2018-09-26T01:23:45.763Z,51.84
2018-09-26T01:24:45.751Z,51.84
2018-09-26T01:25:45.741Z,51.94
2018-09-26T01:26:45.729Z,51.64
2018-09-26T01:27:45.755Z,51.97
2018-09-26T01:28:45.707Z,51.74
2018-09-26T01:29:45.696Z,51.87
2018-09-26T01:30:45.684Z,51.64
2018-09-26T01:31:45.672Z,51.67
2018-09-26T01:32:45.683Z,51.74
2018-09-26T01:33:45.670Z,51.54
2018-09-26T01:34:45.640Z,51.76
2018-09-26T01:35:45.628Z,51.67
2018-09-26T01:36:45.617Z,51.84
2018-09-26T01:37:45.627Z,51.74
2018-09-26T01:38:45.594Z,51.67
2018-09-26T01:39:45.600Z,51.84
2018-09-26T01:40:45.572Z,51.54
2018-09-26T01:41:45.562Z,51.67
2018-09-26T01:42:45.572Z,51.87
2018-09-26T01:43:45.538Z,51.87
2018-09-26T01:44:45.535Z,51.84
2018-09-26T01:45:45.532Z,51.76
2018-09-26T01:46:45.504Z,51.64
2018-09-26T01:47:45.514Z,51.74
2018-09-26T01:48:45.483Z,51.64
2018-09-26T01:49:45.471Z,51.84
2018-09-26T01:50:45.460Z,51.74
2018-09-26T01:51:45.466Z,51.74
2018-09-26T01:52:45.458Z,51.84
2018-09-26T01:53:45.425Z,51.54
2018-09-26T01:54:45.415Z,51.84
2018-09-26T01:55:45.402Z,51.84
2018-09-26T01:56:45.392Z,51.54
2018-09-26T01:57:45.417Z,51.54
2018-09-26T01:58:45.369Z,51.64
2018-09-26T01:59:45.358Z,51.84
2018-09-26T02:00:45.347Z,51.54
2018-09-26T02:01:45.335Z,51.84
2018-09-26T02:02:45.345Z,51.64
2018-09-26T02:03:45.324Z,51.54
2018-09-26T02:04:45.302Z,51.54
2018-09-26T02:05:45.291Z,51.64
2018-09-26T02:06:45.279Z,51.54
2018-09-26T02:07:45.289Z,51.84
2018-09-26T02:08:45.256Z,51.84
2018-09-26T02:09:45.257Z,51.84
2018-09-26T02:10:45.238Z,51.84
2018-09-26T02:11:45.222Z,51.74
2018-09-26T02:12:45.232Z,51.76
2018-09-26T02:13:45.201Z,51.54
2018-09-26T02:14:45.189Z,51.74
2018-09-26T02:15:45.191Z,51.84
2018-09-26T02:16:45.166Z,51.84
2018-09-26T02:17:45.175Z,51.87
2018-09-26T02:18:45.144Z,51.84
2018-09-26T02:19:45.135Z,51.84
2018-09-26T02:20:45.123Z,51.87
2018-09-26T02:21:45.127Z,51.87
2018-09-26T02:22:45.121Z,51.84
2018-09-26T02:23:45.158Z,51.84
2018-09-26T02:24:45.075Z,51.84
2018-09-26T02:25:45.070Z,51.74
2018-09-26T02:26:45.053Z,51.74
2018-09-26T02:27:45.079Z,51.94
2018-09-26T02:28:45.030Z,52.07
2018-09-26T02:29:45.020Z,52.04
2018-09-26T02:30:45.010Z,51.84
2018-09-26T02:31:45.000Z,52.07
2018-09-26T02:32:45.006Z,51.94
2018-09-26T02:33:44.984Z,51.84
2018-09-26T02:34:44.964Z,52.07
2018-09-26T02:35:44.951Z,51.84
2018-09-26T02:36:44.941Z,51.87
2018-09-26T02:37:44.953Z,51.84
2018-09-26T02:38:44.917Z,51.84
2018-09-26T02:39:44.921Z,52.04
2018-09-26T02:40:44.895Z,51.84
2018-09-26T02:41:44.884Z,51.84
2018-09-26T02:42:44.895Z,51.74
2018-09-26T02:43:44.884Z,51.87
2018-09-26T02:44:44.851Z,52.04
2018-09-26T02:45:44.860Z,51.74
2018-09-26T02:46:44.828Z,51.84
2018-09-26T02:47:44.817Z,51.87
2018-09-26T02:48:44.826Z,51.94
2018-09-26T02:49:44.795Z,52.04
2018-09-26T02:50:44.782Z,51.87
2018-09-26T02:51:44.782Z,51.84
2018-09-26T02:52:44.760Z,51.94
2018-09-26T02:53:44.770Z,51.84
2018-09-26T02:54:44.737Z,52.07
2018-09-26T02:55:44.810Z,51.84
2018-09-26T02:56:44.715Z,51.94
2018-09-26T02:57:44.714Z,51.67
2018-09-26T02:58:44.713Z,51.84
2018-09-26T02:59:44.680Z,51.97
2018-09-26T03:00:44.670Z,51.87
2018-09-26T03:01:44.660Z,51.94
2018-09-26T03:02:44.647Z,51.87
2018-09-26T03:03:44.671Z,51.94
2018-09-26T03:04:44.625Z,52.04
2018-09-26T03:05:44.613Z,51.97
2018-09-26T03:06:44.602Z,51.84
2018-09-26T03:07:44.591Z,51.94
2018-09-26T03:08:44.602Z,51.84
2018-09-26T03:09:44.588Z,52.07
2018-09-26T03:10:44.588Z,51.94
2018-09-26T03:11:44.546Z,52.07
2018-09-26T03:12:44.535Z,52.04
2018-09-26T03:13:44.546Z,52.07
2018-09-26T03:14:44.511Z,51.76
2018-09-26T03:15:44.511Z,51.74
2018-09-26T03:16:44.493Z,51.97
2018-09-26T03:17:44.619Z,51.76
2018-09-26T03:18:44.488Z,51.94
2018-09-26T03:19:44.454Z,51.84
2018-09-26T03:20:44.446Z,52.07
2018-09-26T03:21:44.446Z,51.64
2018-09-26T03:22:44.422Z,51.74
2018-09-26T03:23:44.431Z,51.97
2018-09-26T03:24:44.420Z,52.17
2018-09-26T03:25:44.388Z,52.04
2018-09-26T03:26:44.377Z,51.94
2018-09-26T03:27:44.373Z,52.14
2018-09-26T03:28:44.374Z,51.84
2018-09-26T03:29:44.343Z,51.97
2018-09-26T03:30:44.333Z,52.14
2018-09-26T03:31:44.328Z,51.94
2018-09-26T03:32:44.310Z,51.37
2018-09-26T03:33:44.469Z,52.07
2018-09-26T03:34:44.301Z,51.97
2018-09-26T03:35:44.276Z,52.07
2018-09-26T03:36:44.264Z,52.04
2018-09-26T03:37:44.252Z,52.07
2018-09-26T03:38:44.303Z,52.07
2018-09-26T03:39:44.243Z,52.04
2018-09-26T03:40:44.228Z,51.97
2018-09-26T03:41:44.207Z,52.07
2018-09-26T03:42:44.195Z,52.04
2018-09-26T03:43:44.208Z,52.07
2018-09-26T03:44:44.175Z,51.87
2018-09-26T03:45:44.174Z,51.94
2018-09-26T03:46:44.151Z,52.07
2018-09-26T03:47:44.140Z,51.87
2018-09-26T03:48:44.150Z,51.87
2018-09-26T03:49:44.117Z,51.34
2018-09-26T03:50:44.112Z,52.07
2018-09-26T03:51:44.108Z,51.56
2018-09-26T03:52:44.084Z,51.94
2018-09-26T03:53:44.094Z,52.04
2018-09-26T03:54:44.062Z,52.07
2018-09-26T03:55:44.051Z,52.07
2018-09-26T03:56:44.038Z,51.37
2018-09-26T03:57:44.038Z,52.04
2018-09-26T03:58:44.038Z,51.87
2018-09-26T03:59:44.005Z,51.84
2018-09-26T04:00:43.994Z,51.56
2018-09-26T04:01:43.982Z,52.04
2018-09-26T04:02:43.971Z,51.97
2018-09-26T04:03:44.000Z,51.37
2018-09-26T04:04:43.957Z,51.97
2018-09-26T04:05:43.940Z,51.97
2018-09-26T04:06:43.928Z,51.56
2018-09-26T04:07:43.922Z,52.07
2018-09-26T04:08:43.926Z,51.87
2018-09-26T04:09:43.902Z,52.07
2018-09-26T04:10:43.886Z,51.94
2018-09-26T04:11:43.871Z,52.07
2018-09-26T04:12:44.050Z,51.26
2018-09-26T04:13:43.872Z,52.07
2018-09-26T04:14:43.837Z,51.84
2018-09-26T04:15:43.943Z,51.26
2018-09-26T04:16:43.822Z,51.44
2018-09-26T04:17:43.802Z,51.14
2018-09-26T04:18:43.813Z,51.56
2018-09-26T04:19:43.782Z,51.87
2018-09-26T04:20:43.775Z,51.94
2018-09-26T04:21:43.775Z,51.54
2018-09-26T04:22:43.753Z,51.44
2018-09-26T04:23:43.758Z,51.64
2018-09-26T04:24:43.747Z,51.64
2018-09-26T04:25:43.715Z,51.64
2018-09-26T04:26:43.888Z,51.64
2018-09-26T04:27:43.781Z,52.04
2018-09-26T04:28:43.682Z,52.14
2018-09-26T04:29:43.697Z,51.64
2018-09-26T04:30:43.658Z,52.14
2018-09-26T04:31:43.648Z,51.94
2018-09-26T04:32:43.761Z,51.94
2018-09-26T04:33:43.669Z,51.84
2018-09-26T04:34:43.635Z,51.74
2018-09-26T04:35:43.602Z,51.74
2018-09-26T04:36:43.592Z,51.44
2018-09-26T04:37:43.579Z,51.84
2018-09-26T04:38:43.680Z,51.84
2018-09-26T04:39:43.594Z,52.14
2018-09-26T04:40:43.546Z,51.94
2018-09-26T04:41:43.535Z,51.94
2018-09-26T04:42:43.524Z,51.44
2018-09-26T04:43:43.511Z,51.94
2018-09-26T04:44:43.524Z,51.94
2018-09-26T04:45:43.499Z,52.04
2018-09-26T04:46:43.477Z,51.74
2018-09-26T04:47:43.467Z,51.54
2018-09-26T04:48:43.457Z,51.54
2018-09-26T04:49:43.465Z,51.74
2018-09-26T04:50:43.489Z,51.74
2018-09-26T04:51:43.441Z,51.64
2018-09-26T04:52:43.419Z,51.34
2018-09-26T04:53:43.401Z,51.44
2018-09-26T04:54:43.410Z,51.44
2018-09-26T04:55:43.379Z,51.44
2018-09-26T04:56:43.366Z,51.84
2018-09-26T04:57:43.438Z,51.24
2018-09-26T04:58:43.343Z,51.54
2018-09-26T04:59:43.354Z,51.24
2018-09-26T05:00:43.324Z,51.84
2018-09-26T05:01:43.311Z,51.64
2018-09-26T05:02:43.300Z,51.44
2018-09-26T05:03:43.299Z,51.64
2018-09-26T05:04:43.300Z,51.54
2018-09-26T05:05:43.264Z,51.54
2018-09-26T05:06:43.255Z,51.54
2018-09-26T05:07:43.244Z,51.64
2018-09-26T05:08:43.235Z,51.64
2018-09-26T05:09:43.258Z,51.62
2018-09-26T05:10:43.210Z,51.44
2018-09-26T05:11:43.199Z,51.54
2018-09-26T05:12:43.188Z,51.44
2018-09-26T05:13:43.176Z,51.64
2018-09-26T05:14:43.247Z,51.34
2018-09-26T05:15:43.163Z,51.64
2018-09-26T05:16:43.146Z,51.64
2018-09-26T05:17:43.134Z,51.72
2018-09-26T05:18:43.120Z,51.62
2018-09-26T05:19:43.131Z,51.74
2018-09-26T05:20:43.099Z,42.11
2018-09-26T05:21:43.108Z,39.14
2018-09-26T05:22:43.081Z,39.60
2018-09-26T05:23:43.065Z,40.14
2018-09-26T05:24:43.078Z,40.18
2018-09-26T05:25:43.043Z,41.53
2018-09-26T05:26:43.034Z,42.07
2018-09-26T05:27:43.037Z,42.11
2018-09-26T05:28:43.031Z,42.64
2018-09-26T05:29:43.020Z,42.90
2018-09-26T05:30:42.986Z,44.03
2018-09-26T05:31:42.976Z,45.07
2018-09-26T05:32:42.963Z,45.79
2018-09-26T05:33:42.953Z,45.51
2018-09-26T05:34:43.033Z,46.65
2018-09-26T05:35:42.929Z,47.28
2018-09-26T05:36:42.932Z,48.60
2018-09-26T05:37:42.908Z,51.52
2018-09-26T05:38:42.945Z,51.09
2018-09-26T05:39:42.906Z,52.79
2018-09-26T05:40:42.901Z,52.26
2018-09-26T05:41:42.936Z,50.61
2018-09-26T05:42:42.850Z,49.35
2018-09-26T05:43:42.839Z,49.13
2018-09-26T05:44:42.848Z,47.89
2018-09-26T05:45:42.816Z,48.47
2018-09-26T05:46:42.805Z,47.95
2018-09-26T05:47:42.802Z,47.42
2018-09-26T05:48:42.784Z,46.99
2018-09-26T05:49:42.793Z,46.57
2018-09-26T05:50:42.764Z,46.55
2018-09-26T05:51:42.751Z,46.45
2018-09-26T05:52:42.737Z,45.42
2018-09-26T05:53:42.738Z,45.50
2018-09-26T05:54:42.736Z,45.37
2018-09-26T05:55:42.703Z,45.27
2018-09-26T05:56:42.712Z,45.25
2018-09-26T05:57:42.684Z,44.95
2018-09-26T05:58:42.672Z,44.85
2018-09-26T05:59:42.729Z,45.03
2018-09-26T06:00:42.648Z,45.03
2018-09-26T06:01:42.636Z,44.93
2018-09-26T06:02:42.627Z,44.91
2018-09-26T06:03:42.615Z,44.83
2018-09-26T06:04:42.625Z,44.91
2018-09-26T06:05:42.601Z,44.81
2018-09-26T06:06:42.582Z,44.79
2018-09-26T06:07:42.587Z,44.89
2018-09-26T06:08:42.557Z,44.68
2018-09-26T06:09:42.581Z,44.67
2018-09-26T06:10:42.534Z,44.56
2018-09-26T06:11:42.523Z,44.76
2018-09-26T06:12:42.578Z,44.76
2018-09-26T06:13:42.499Z,44.87
2018-09-26T06:14:42.488Z,44.16
2018-09-26T06:15:42.507Z,42.05
2018-09-26T06:16:42.470Z,39.75
2018-09-26T06:17:42.455Z,41.05
2018-09-26T06:18:42.449Z,44.48
2018-09-26T06:19:42.432Z,44.79
2018-09-26T06:20:42.442Z,44.89
2018-09-26T06:21:42.447Z,44.18
2018-09-26T06:22:42.401Z,45.39
2018-09-26T06:23:42.389Z,43.98
2018-09-26T06:24:42.429Z,45.39
2018-09-26T06:25:42.386Z,45.29
2018-09-26T06:26:42.371Z,44.76
2018-09-26T06:27:42.343Z,44.16
2018-09-26T06:28:42.331Z,44.76
2018-09-26T06:29:42.319Z,44.74
2018-09-26T06:30:42.388Z,44.16
2018-09-26T06:31:42.306Z,44.54
2018-09-26T06:32:42.289Z,44.54
2018-09-26T06:33:42.337Z,44.64
2018-09-26T06:34:42.276Z,45.04
2018-09-26T06:35:42.279Z,44.44
2018-09-26T06:36:42.254Z,45.34
2018-09-26T06:37:42.240Z,45.02
2018-09-26T06:38:42.218Z,45.02
2018-09-26T06:39:42.206Z,45.32
2018-09-26T06:40:42.222Z,44.62
2018-09-26T06:41:42.183Z,45.32
2018-09-26T06:42:42.177Z,45.30
2018-09-26T06:43:42.206Z,45.70
2018-09-26T06:44:42.153Z,45.32
2018-09-26T06:45:42.168Z,45.20
2018-09-26T06:46:42.134Z,45.40
2018-09-26T06:47:42.124Z,44.90
2018-09-26T06:48:42.110Z,45.10
2018-09-26T06:49:42.111Z,45.50
2018-09-26T06:50:42.104Z,45.70
2018-09-26T06:51:42.072Z,45.40
2018-09-26T06:52:42.070Z,45.40
2018-09-26T06:53:42.049Z,45.08
2018-09-26T06:54:42.037Z,45.60
2018-09-26T06:55:42.048Z,45.48
2018-09-26T06:56:42.026Z,45.28
2018-09-26T06:57:42.004Z,45.28
2018-09-26T06:58:41.993Z,45.28
2018-09-26T06:59:41.994Z,45.38
2018-09-26T07:00:41.992Z,45.38
2018-09-26T07:01:41.989Z,45.28
2018-09-26T07:02:41.969Z,45.28
2018-09-26T07:03:41.941Z,45.18
2018-09-26T07:04:41.924Z,45.18
2018-09-26T07:05:41.943Z,45.18
2018-09-26T07:06:41.903Z,45.38
2018-09-26T07:07:41.891Z,45.38
2018-09-26T07:08:41.884Z,44.98
2018-09-26T07:09:41.869Z,45.38
2018-09-26T07:10:41.910Z,45.18
2018-09-26T07:11:41.853Z,45.28
2018-09-26T07:12:41.836Z,45.88
2018-09-26T07:13:41.851Z,45.58
2018-09-26T07:14:41.830Z,45.86
2018-09-26T07:15:41.823Z,45.98
2018-09-26T07:16:41.799Z,45.98
2018-09-26T07:17:41.785Z,45.98
2018-09-26T07:18:41.769Z,45.98
2018-09-26T07:19:41.771Z,45.78
2018-09-26T07:20:41.767Z,45.98
2018-09-26T07:21:41.735Z,45.76
2018-09-26T07:22:41.728Z,45.66
2018-09-26T07:23:41.716Z,45.76
2018-09-26T07:24:41.714Z,46.06
2018-09-26T07:25:41.713Z,46.06
2018-09-26T07:26:41.686Z,46.36
2018-09-26T07:27:41.667Z,46.36
2018-09-26T07:28:41.656Z,46.16
2018-09-26T07:29:41.656Z,46.36
2018-09-26T07:30:41.654Z,46.16
2018-09-26T07:31:41.626Z,46.46
2018-09-26T07:32:41.621Z,46.86
2018-09-26T07:33:41.607Z,46.66
2018-09-26T07:34:41.593Z,46.96
2018-09-26T07:35:41.641Z,46.76
2018-09-26T07:36:41.573Z,46.86
2018-09-26T07:37:41.554Z,47.06
2018-09-26T07:38:41.548Z,46.86
2018-09-26T07:39:41.739Z,47.06
2018-09-26T07:40:41.545Z,47.46
2018-09-26T07:41:41.510Z,46.96
2018-09-26T07:42:41.509Z,47.56
2018-09-26T07:43:41.495Z,47.56
2018-09-26T07:44:41.476Z,47.66
2018-09-26T07:45:41.519Z,46.96
2018-09-26T07:46:41.453Z,47.46
2018-09-26T07:47:41.443Z,47.46
2018-09-26T07:48:41.558Z,47.36
2018-09-26T07:49:41.420Z,47.76
2018-09-26T07:50:41.441Z,47.06
2018-09-26T07:51:41.400Z,47.06
2018-09-26T07:52:41.413Z,47.06
2018-09-26T07:53:41.377Z,46.86
2018-09-26T07:54:41.370Z,46.76
2018-09-26T07:55:41.353Z,47.56
2018-09-26T07:56:41.381Z,47.76
2018-09-26T07:57:41.761Z,47.36
2018-09-26T07:58:41.321Z,47.06
2018-09-26T07:59:41.307Z,47.06
2018-09-26T08:00:41.299Z,47.26
2018-09-26T08:01:47.171Z,47.56
2018-09-26T08:02:41.274Z,47.36
2018-09-26T08:03:41.262Z,47.76
2018-09-26T08:04:41.255Z,47.36
2018-09-26T08:05:41.279Z,47.26
2018-09-26T08:06:41.249Z,47.96
2018-09-26T08:07:41.217Z,47.76
2018-09-26T08:08:41.216Z,47.96
2018-09-26T08:09:41.195Z,47.86
2018-09-26T08:10:41.182Z,47.76
2018-09-26T08:11:41.250Z,47.86
2018-09-26T08:12:41.160Z,47.66
2018-09-26T08:13:41.170Z,47.76
2018-09-26T08:14:41.140Z,47.64
2018-09-26T08:15:41.129Z,47.44
2018-09-26T08:16:41.136Z,47.64
2018-09-26T08:17:41.104Z,47.74
2018-09-26T08:18:41.185Z,47.44
2018-09-26T08:19:41.090Z,47.44
2018-09-26T08:20:41.071Z,47.46
2018-09-26T08:21:41.090Z,47.54
2018-09-26T08:22:41.048Z,47.74
2018-09-26T08:23:41.125Z,47.44
2018-09-26T08:24:41.031Z,47.54
2018-09-26T08:25:41.036Z,47.74
2018-09-26T08:26:41.151Z,47.34
2018-09-26T08:27:40.993Z,48.34
2018-09-26T08:28:40.986Z,47.94
2018-09-26T08:29:41.136Z,48.24
2018-09-26T08:30:40.959Z,48.54
2018-09-26T08:31:40.972Z,48.64
2018-09-26T08:32:40.941Z,48.44
2018-09-26T08:33:40.947Z,48.44
2018-09-26T08:34:40.916Z,48.04
2018-09-26T08:35:40.904Z,48.04
2018-09-26T08:36:40.993Z,43.54
2018-09-26T08:37:40.882Z,41.43
2018-09-26T08:38:40.869Z,40.25
2018-09-26T08:39:40.862Z,39.97
2018-09-26T08:40:40.846Z,39.59
2018-09-26T08:41:40.861Z,39.32
2018-09-26T08:42:40.878Z,40.65
2018-09-26T08:43:40.824Z,39.16
2018-09-26T08:44:40.803Z,40.28
2018-09-26T08:45:40.791Z,40.30
2018-09-26T08:46:40.826Z,39.94
2018-09-26T08:47:40.776Z,41.25
2018-09-26T08:48:40.757Z,40.86
2018-09-26T08:49:40.765Z,41.37
2018-09-26T08:50:40.902Z,41.89
2018-09-26T08:51:40.749Z,46.53
2018-09-26T08:52:40.749Z,46.60
2018-09-26T08:53:40.755Z,45.50
2018-09-26T08:54:40.690Z,44.87
2018-09-26T08:55:40.733Z,45.47
2018-09-26T08:56:40.690Z,45.45
2018-09-26T08:57:40.702Z,45.13
2018-09-26T08:58:40.645Z,45.33
2018-09-26T08:59:40.733Z,45.01
2018-09-26T09:00:40.742Z,44.81
2018-09-26T09:01:40.644Z,44.48
2018-09-26T09:02:40.602Z,44.87
2018-09-26T09:03:40.589Z,43.96
2018-09-26T09:04:40.594Z,44.96
2018-09-26T09:05:40.565Z,44.95
2018-09-26T09:06:40.583Z,45.04
2018-09-26T09:07:40.548Z,44.54
2018-09-26T09:08:40.531Z,44.44
2018-09-26T09:09:40.520Z,44.12
2018-09-26T09:10:40.538Z,44.22
2018-09-26T09:11:40.571Z,44.32
2018-09-26T09:12:40.494Z,44.20
2018-09-26T09:13:40.477Z,44.90
2018-09-26T09:14:40.624Z,44.80
2018-09-26T09:15:40.474Z,44.90
2018-09-26T09:16:40.463Z,44.80
2018-09-26T09:17:40.479Z,44.30
2018-09-26T09:18:40.736Z,44.18
2018-09-26T09:19:40.407Z,44.10
2018-09-26T09:20:40.405Z,44.08
2018-09-26T09:21:40.413Z,44.68
2018-09-26T09:22:40.397Z,44.58
2018-09-26T09:23:40.364Z,44.38
2018-09-26T09:24:40.356Z,44.98
2018-09-26T09:25:40.358Z,44.78
2018-09-26T09:26:40.365Z,44.76
2018-09-26T09:27:40.367Z,44.58
2018-09-26T09:28:40.316Z,45.28
2018-09-26T09:29:40.326Z,45.46
2018-09-26T09:30:40.288Z,45.18
2018-09-26T09:31:40.300Z,44.68
2018-09-26T09:32:40.283Z,44.78
2018-09-26T09:33:40.251Z,44.56
2018-09-26T09:34:40.244Z,44.66
2018-09-26T09:35:40.233Z,44.68
2018-09-26T09:36:40.229Z,44.88
2018-09-26T09:37:40.285Z,45.26
2018-09-26T09:38:40.207Z,44.86
2018-09-26T09:39:40.188Z,44.76
2018-09-26T09:40:40.196Z,44.86
2018-09-26T09:41:40.166Z,44.96
2018-09-26T09:42:40.174Z,45.06
2018-09-26T09:43:40.144Z,44.96
2018-09-26T09:44:40.137Z,45.06
2018-09-26T09:45:40.117Z,45.16
2018-09-26T09:46:40.108Z,45.24
2018-09-26T09:47:40.120Z,45.14
2018-09-26T09:48:40.085Z,45.34
2018-09-26T09:49:40.156Z,45.46
2018-09-26T09:50:40.075Z,45.24
2018-09-26T09:51:40.084Z,45.24
2018-09-26T09:52:40.065Z,45.14
2018-09-26T09:53:40.049Z,45.04
2018-09-26T09:54:40.021Z,45.34
2018-09-26T09:55:40.005Z,45.14
2018-09-26T09:56:40.036Z,45.54
2018-09-26T09:57:40.003Z,44.84
2018-09-26T09:58:39.973Z,44.93
2018-09-26T09:59:39.961Z,45.34
2018-09-26T10:00:39.950Z,45.14
2018-09-26T10:01:39.982Z,45.14
2018-09-26T10:02:40.026Z,45.94
2018-09-26T10:03:39.970Z,45.54
2018-09-26T10:04:39.906Z,42.54
2018-09-26T10:05:39.926Z,40.63
2018-09-26T10:06:39.894Z,37.95
2018-09-26T10:07:39.900Z,38.77
2018-09-26T10:08:39.918Z,40.01
2018-09-26T10:09:39.851Z,39.31
2018-09-26T10:10:39.885Z,39.42
2018-09-26T10:11:39.928Z,40.53
2018-09-26T10:12:39.837Z,40.06
2018-09-26T10:13:39.805Z,41.07
2018-09-26T10:14:39.835Z,41.59
2018-09-26T10:15:39.786Z,40.79
2018-09-26T10:16:39.772Z,43.52
2018-09-26T10:17:39.914Z,43.70
2018-09-26T10:18:39.748Z,43.20
2018-09-26T10:19:39.740Z,43.10
2018-09-26T10:20:39.729Z,43.40
2018-09-26T10:21:39.717Z,43.08
2018-09-26T10:22:39.727Z,42.38
2018-09-26T10:23:39.878Z,42.05
2018-09-26T11:55:26.107Z,37.95
2018-09-26T11:56:52.869Z,35.24
2018-09-26T11:57:52.852Z,44.94
2018-09-26T11:58:52.954Z,38.48
2018-09-26T11:59:52.832Z,33.21
2018-09-26T12:00:52.818Z,32.69
2018-09-26T12:01:52.813Z,33.11
2018-09-26T12:02:52.795Z,33.72
2018-09-26T12:03:52.832Z,35.95
2018-09-26T12:04:52.781Z,34.45
2018-09-26T12:05:52.762Z,35.46
2018-09-26T12:06:52.754Z,34.66
2018-09-26T12:07:52.844Z,32.14
2018-09-26T12:08:52.800Z,33.26
2018-09-26T12:09:52.735Z,34.37
2018-09-26T12:10:52.708Z,33.36
2018-09-26T12:11:52.714Z,34.28
2018-09-26T12:12:52.700Z,34.08
2018-09-26T12:13:52.727Z,35.39
2018-09-26T12:14:52.659Z,34.18
2018-09-26T12:15:52.656Z,34.69
2018-09-26T12:16:52.636Z,32.48
2018-09-26T12:17:52.625Z,32.26
2018-09-26T12:18:52.643Z,33.17
2018-09-26T12:19:52.601Z,32.38
2018-09-26T12:20:52.596Z,33.98
2018-09-26T12:21:52.613Z,31.65
2018-09-26T12:22:52.567Z,32.36
2018-09-26T12:23:52.583Z,32.67
2018-09-26T12:24:52.549Z,32.58
2018-09-26T12:25:52.538Z,32.67
2018-09-26T12:26:52.540Z,32.97
2018-09-26T12:27:52.592Z,33.66
2018-09-26T12:28:52.521Z,33.86
2018-09-26T12:29:52.489Z,32.95
2018-09-26T12:30:52.478Z,33.66
2018-09-26T12:31:52.573Z,33.86
2018-09-26T12:32:52.465Z,34.17
2018-09-26T12:33:52.466Z,30.63
2018-09-26T12:34:52.517Z,31.74
2018-09-26T12:35:52.418Z,31.23
2018-09-26T12:36:52.427Z,33.95
2018-09-26T12:37:52.395Z,33.66
2018-09-26T12:38:52.416Z,34.25
2018-09-26T12:39:52.382Z,33.05
2018-09-26T12:40:52.363Z,34.15
2018-09-26T12:41:52.350Z,33.56
2018-09-26T12:42:52.483Z,36.37
2018-09-26T12:43:52.350Z,32.23
2018-09-26T12:44:52.327Z,32.35
2018-09-26T12:45:52.309Z,34.35
2018-09-26T12:46:52.294Z,33.75
2018-09-26T12:47:52.335Z,33.75
2018-09-26T12:48:52.292Z,32.23
2018-09-26T12:49:52.382Z,32.03
2018-09-26T12:50:52.247Z,33.54
2018-09-26T12:51:52.242Z,37.38
2018-09-26T12:52:52.228Z,32.73
2018-09-26T12:53:52.349Z,34.15
2018-09-26T12:54:52.229Z,34.55
2018-09-26T12:55:52.191Z,32.93
2018-09-26T12:56:52.178Z,33.54
2018-09-26T12:57:52.166Z,35.26
2018-09-26T12:58:52.187Z,34.25
2018-09-26T12:59:52.148Z,32.93
2018-09-26T13:00:52.143Z,34.45
2018-09-26T13:01:52.121Z,32.53
2018-09-26T13:02:52.109Z,34.35
2018-09-26T13:03:52.120Z,34.55
2018-09-26T13:04:52.086Z,35.97
2018-09-26T13:05:52.080Z,32.84
2018-09-26T13:06:52.071Z,32.33
2018-09-26T13:07:52.052Z,33.64
2018-09-26T13:08:52.068Z,33.84
2018-09-26T13:09:52.028Z,33.24
2018-09-26T13:10:52.025Z,33.95
2018-09-26T13:11:52.005Z,33.53
2018-09-26T13:12:51.993Z,34.74
2018-09-26T13:13:52.005Z,34.23
2018-09-26T13:14:51.977Z,35.14
2018-09-26T13:15:51.962Z,34.55
2018-09-26T13:16:51.972Z,32.32
2018-09-26T13:17:51.935Z,33.54
2018-09-26T13:18:51.951Z,33.75
2018-09-26T13:19:51.917Z,35.65
2018-09-26T13:20:51.911Z,34.45
2018-09-26T13:21:51.898Z,34.23
2018-09-26T13:22:51.879Z,32.43
2018-09-26T13:23:51.955Z,32.93
2018-09-26T13:24:51.863Z,32.21
2018-09-26T13:25:51.876Z,34.44
2018-09-26T13:26:51.841Z,34.03
2018-09-26T13:27:51.832Z,33.53
2018-09-26T13:28:51.821Z,34.44
2018-09-26T13:29:51.833Z,34.12
2018-09-26T13:30:51.797Z,34.32
2018-09-26T13:31:51.780Z,32.90
2018-09-26T13:32:51.781Z,33.31
2018-09-26T13:33:51.762Z,33.41
2018-09-26T13:34:51.769Z,33.81
2018-09-26T13:35:51.742Z,32.30
2018-09-26T13:36:51.724Z,33.21
2018-09-26T13:37:51.721Z,33.92
2018-09-26T13:38:51.714Z,33.72
2018-09-26T13:39:51.715Z,32.30
2018-09-26T13:40:51.681Z,33.72
2018-09-26T13:41:51.668Z,33.61
2018-09-26T13:42:51.749Z,33.81
2018-09-26T13:43:51.654Z,34.01
2018-09-26T13:44:51.751Z,33.11
2018-09-26T13:45:51.750Z,32.40
2018-09-26T13:46:51.821Z,33.09
2018-09-26T13:47:51.601Z,32.18
2018-09-26T13:48:51.594Z,32.18
2018-09-26T13:49:51.604Z,32.70
2018-09-26T13:50:51.606Z,31.48
2018-09-26T13:51:51.570Z,31.58
2018-09-26T13:52:51.547Z,32.69
2018-09-26T13:53:51.598Z,34.20
2018-09-26T13:54:51.550Z,34.49
2018-09-26T13:55:51.511Z,33.28
2018-09-26T13:56:51.499Z,33.29
2018-09-26T13:57:51.493Z,31.36
2018-09-26T13:58:51.490Z,31.67
2018-09-26T13:59:51.489Z,31.67
2018-09-26T14:00:51.454Z,32.57
2018-09-26T14:01:51.442Z,34.19
2018-09-26T14:02:51.432Z,33.67
2018-09-26T14:03:51.419Z,33.67
2018-09-26T14:04:51.440Z,33.67
2018-09-26T14:05:51.405Z,33.67
2018-09-26T14:06:51.387Z,34.08
2018-09-26T14:07:51.373Z,32.78
2018-09-26T14:08:51.361Z,32.66
2018-09-26T14:09:51.372Z,35.48
2018-09-26T14:10:51.345Z,35.28
2018-09-26T14:11:51.329Z,34.97
2018-09-26T14:12:51.319Z,33.76
2018-09-26T14:13:51.306Z,33.48
2018-09-26T14:14:51.319Z,32.26
2018-09-26T14:15:51.283Z,32.05
2018-09-26T14:16:51.273Z,31.95
2018-09-26T14:17:51.260Z,33.26
2018-09-26T14:18:51.298Z,34.07
2018-09-26T14:19:51.273Z,33.06
2018-09-26T14:20:51.226Z,32.66
2018-09-26T14:21:51.219Z,33.56
2018-09-26T14:22:51.339Z,34.97
2018-09-26T14:23:51.190Z,34.17